createdAt,value
2018-09-23T00:01:40.793Z,90.67
2018-09-23T00:04:09.623Z,90.52
2018-09-23T00:06:39.836Z,90.23
2018-09-23T00:09:08.929Z,89.86
2018-09-23T00:11:37.673Z,90.72
2018-09-23T00:14:07.117Z,91.09
2018-09-23T00:16:36.032Z,91.63
2018-09-23T00:19:05.234Z,91.85
2018-09-23T00:21:34.616Z,92.73
2018-09-23T00:24:03.706Z,92.11
2018-09-23T00:26:32.628Z,92.23
2018-09-23T00:29:01.397Z,92.50
2018-09-23T00:31:31.046Z,92.22
2018-09-23T00:33:59.763Z,92.13
2018-09-23T00:36:29.791Z,92.56
2018-09-23T00:38:58.751Z,92.33
2018-09-23T00:41:27.588Z,92.45
2018-09-23T00:43:56.497Z,92.98
2018-09-23T00:46:26.666Z,93.21
2018-09-23T00:48:55.600Z,93.14
2018-09-23T00:51:25.159Z,93.92
2018-09-23T00:53:54.383Z,93.67
2018-09-23T00:56:23.516Z,93.76
2018-09-23T00:58:53.026Z,93.28
2018-09-23T01:01:21.942Z,93.79
2018-09-23T01:03:50.668Z,93.83
2018-09-23T01:06:19.551Z,94.13
2018-09-23T01:08:48.411Z,94.66
2018-09-23T01:11:17.167Z,94.00
2018-09-23T01:13:46.147Z,94.10
2018-09-23T01:16:15.662Z,94.54
2018-09-23T01:18:44.755Z,95.15
2018-09-23T01:21:15.696Z,94.88
2018-09-23T01:23:44.976Z,94.75
2018-09-23T01:26:14.453Z,95.49
2018-09-23T01:28:44.583Z,94.92
2018-09-23T01:31:13.424Z,94.29
2018-09-23T01:33:42.747Z,94.96
2018-09-23T01:36:12.322Z,94.31
2018-09-23T01:38:43.537Z,94.43
2018-09-23T01:41:12.592Z,94.30
2018-09-23T01:43:41.927Z,95.01
2018-09-23T01:46:11.006Z,96.53
2018-09-23T01:48:40.238Z,96.68
2018-09-23T01:51:09.011Z,96.35
2018-09-23T01:53:37.893Z,95.95
2018-09-23T01:56:06.689Z,95.64
2018-09-23T01:58:36.007Z,95.94
2018-09-23T02:01:05.257Z,97.36
2018-09-23T02:03:34.735Z,97.20
2018-09-23T02:06:03.668Z,97.50
2018-09-23T02:08:32.313Z,97.83
2018-09-23T02:11:01.266Z,97.03
2018-09-23T02:13:30.139Z,98.34
2018-09-23T02:15:59.778Z,98.30
2018-09-23T02:18:28.582Z,96.51
2018-09-23T02:20:57.292Z,97.22
2018-09-23T02:23:27.323Z,97.61
2018-09-23T02:25:56.672Z,97.45
2018-09-23T02:28:25.923Z,97.35
2018-09-23T02:30:55.214Z,97.53
2018-09-23T02:33:23.907Z,96.75
2018-09-23T02:35:53.453Z,96.71
2018-09-23T02:38:22.515Z,97.25
2018-09-23T02:40:51.139Z,97.53
2018-09-23T02:43:20.063Z,97.44
2018-09-23T02:45:49.489Z,97.05
2018-09-23T02:48:18.923Z,97.16
2018-09-23T02:50:47.866Z,97.23
2018-09-23T02:53:17.255Z,97.41
2018-09-23T02:55:46.211Z,97.57
2018-09-23T02:58:15.547Z,97.41
2018-09-23T03:00:44.730Z,97.96
2018-09-23T03:03:13.906Z,97.39
2018-09-23T03:05:43.028Z,97.93
2018-09-23T03:08:11.783Z,97.97
2018-09-23T03:10:40.671Z,97.72
2018-09-23T03:13:09.662Z,97.95
2018-09-23T03:15:39.024Z,97.69
2018-09-23T03:18:08.355Z,97.43
2018-09-23T03:20:37.944Z,97.77
2018-09-23T03:23:06.718Z,97.32
2018-09-23T03:25:35.991Z,97.18
2018-09-23T03:28:05.469Z,97.23
2018-09-23T03:30:34.311Z,97.02
2018-09-23T03:33:02.957Z,97.50
2018-09-23T03:35:31.902Z,97.49
2018-09-23T03:38:01.268Z,97.67
2018-09-23T03:40:30.003Z,97.98
2018-09-23T03:42:58.939Z,98.29
2018-09-23T03:45:27.875Z,98.71
2018-09-23T03:47:56.633Z,99.14
2018-09-23T03:50:25.857Z,99.39
2018-09-23T03:52:54.519Z,99.36
2018-09-23T03:55:23.334Z,99.54
2018-09-23T03:57:52.885Z,99.63
2018-09-23T04:00:22.187Z,99.32
2018-09-23T04:02:50.784Z,99.60
2018-09-23T04:05:19.602Z,99.25
2018-09-23T04:07:49.433Z,99.15
2018-09-23T04:10:19.674Z,99.02
2018-09-23T04:12:48.349Z,98.81
2018-09-23T04:15:17.343Z,98.91
2018-09-23T04:17:46.850Z,99.11
2018-09-23T04:20:16.989Z,99.15
2018-09-23T04:22:50.399Z,99.15
2018-09-23T04:25:20.233Z,99.33
2018-09-23T04:27:49.655Z,99.08
2018-09-23T04:30:20.304Z,98.94
2018-09-23T04:32:50.488Z,99.50
2018-09-23T04:35:19.668Z,100.00
2018-09-23T04:37:48.995Z,99.84
2018-09-23T04:40:17.792Z,99.63
2018-09-23T04:42:46.672Z,99.93
2018-09-23T04:45:15.888Z,100.00
2018-09-23T04:47:45.128Z,100.00
2018-09-23T04:50:13.780Z,100.00
2018-09-23T04:52:42.729Z,99.87
2018-09-23T04:55:12.775Z,100.00
2018-09-23T04:57:42.239Z,100.00
2018-09-23T05:00:11.648Z,100.00
2018-09-23T05:02:40.539Z,100.00
2018-09-23T05:05:10.958Z,100.00
2018-09-23T05:07:40.100Z,100.00
2018-09-23T05:10:09.149Z,100.00
2018-09-23T05:12:37.754Z,100.00
2018-09-23T05:15:06.829Z,100.00
2018-09-23T05:17:35.879Z,100.00
2018-09-23T05:20:04.900Z,100.00
2018-09-23T05:22:34.187Z,100.00
2018-09-23T05:25:03.205Z,100.00
2018-09-23T05:27:32.774Z,100.00
2018-09-23T05:30:02.968Z,100.00
2018-09-23T05:32:32.141Z,100.00
2018-09-23T05:35:00.789Z,100.00
2018-09-23T05:37:29.514Z,100.00
2018-09-23T05:39:58.335Z,100.00
2018-09-23T05:42:27.154Z,100.00
2018-09-23T05:44:56.531Z,100.00
2018-09-23T05:47:25.628Z,100.00
2018-09-23T05:49:54.754Z,100.00
2018-09-23T05:52:23.613Z,100.00
2018-09-23T05:54:52.204Z,100.00
2018-09-23T05:57:21.113Z,100.00
2018-09-23T05:59:50.915Z,100.00
2018-09-23T06:02:19.883Z,100.00
2018-09-23T06:04:49.112Z,100.00
2018-09-23T06:07:17.833Z,100.00
2018-09-23T06:09:46.610Z,100.00
2018-09-23T06:12:16.010Z,100.00
2018-09-23T06:14:44.924Z,100.00
2018-09-23T06:17:13.877Z,100.00
2018-09-23T06:19:42.794Z,100.00
2018-09-23T06:22:11.727Z,100.00
2018-09-23T06:24:43.375Z,100.00
2018-09-23T06:27:12.080Z,100.00
2018-09-23T06:29:41.530Z,100.00
2018-09-23T06:32:10.473Z,100.00
2018-09-23T06:34:40.028Z,100.00
2018-09-23T06:37:09.093Z,98.35
2018-09-23T06:39:37.813Z,96.46
2018-09-23T06:42:06.629Z,94.29
2018-09-23T06:44:35.684Z,92.67
2018-09-23T06:47:04.921Z,91.87
2018-09-23T06:49:33.946Z,91.09
2018-09-23T06:52:04.885Z,90.97
2018-09-23T06:54:33.610Z,89.16
2018-09-23T06:57:02.773Z,89.23
2018-09-23T06:59:31.975Z,86.34
2018-09-23T07:02:00.794Z,85.34
2018-09-23T07:04:30.413Z,84.41
2018-09-23T07:06:59.237Z,83.37
2018-09-23T07:09:28.963Z,83.71
2018-09-23T07:11:58.248Z,83.41
2018-09-23T07:14:27.597Z,82.60
2018-09-23T07:16:56.453Z,82.20
2018-09-23T07:19:25.734Z,81.33
2018-09-23T07:21:54.737Z,80.30
2018-09-23T07:24:23.560Z,79.93
2018-09-23T07:26:52.473Z,80.02
2018-09-23T07:29:21.794Z,78.71
2018-09-23T07:31:51.056Z,78.37
2018-09-23T07:34:20.002Z,78.13
2018-09-23T07:36:49.210Z,76.88
2018-09-23T07:39:18.210Z,75.91
2018-09-23T07:41:46.936Z,74.77
2018-09-23T07:44:16.096Z,71.17
2018-09-23T07:46:45.379Z,67.87
2018-09-23T07:49:14.484Z,68.44
2018-09-23T07:51:44.709Z,70.11
2018-09-23T07:54:14.020Z,71.53
2018-09-23T07:56:43.073Z,72.72
2018-09-23T07:59:12.024Z,72.29
2018-09-23T08:01:40.715Z,73.12
2018-09-23T08:04:09.801Z,71.87
2018-09-23T08:06:39.044Z,73.12
2018-09-23T08:09:08.889Z,73.93
2018-09-23T08:11:39.209Z,74.04
2018-09-23T08:14:08.686Z,74.31
2018-09-23T08:16:38.010Z,75.50
2018-09-23T08:19:07.364Z,75.38
2018-09-23T08:21:36.336Z,75.04
2018-09-23T08:24:05.513Z,74.21
2018-09-23T08:26:34.465Z,72.97
2018-09-23T08:29:04.062Z,69.64
2018-09-23T08:31:33.738Z,67.11
2018-09-23T08:34:02.534Z,64.96
2018-09-23T08:36:31.700Z,64.71
2018-09-23T08:39:00.815Z,63.82
2018-09-23T08:41:29.741Z,59.17
2018-09-23T08:43:58.650Z,59.41
2018-09-23T08:46:27.531Z,62.03
2018-09-23T08:48:56.638Z,64.71
2018-09-23T08:51:25.851Z,68.05
2018-09-23T08:53:56.471Z,70.46
2018-09-23T08:56:25.417Z,72.26
2018-09-23T08:58:54.640Z,72.85
2018-09-23T09:01:23.544Z,73.12
2018-09-23T09:03:52.296Z,73.66
2018-09-23T09:06:21.421Z,72.76
2018-09-23T09:08:50.900Z,72.56
2018-09-23T09:11:19.942Z,70.32
2018-09-23T09:13:49.014Z,70.22
2018-09-23T09:16:18.551Z,69.12
2018-09-23T09:18:47.547Z,70.73
2018-09-23T09:21:16.613Z,70.13
2018-09-23T09:23:45.244Z,69.82
2018-09-23T09:26:14.215Z,69.48
2018-09-23T09:28:43.462Z,69.05
2018-09-23T09:31:12.549Z,67.78
2018-09-23T09:33:42.179Z,64.04
2018-09-23T09:36:12.238Z,59.89
2018-09-23T09:38:41.263Z,60.47
2018-09-23T09:41:10.380Z,60.19
2018-09-23T09:43:39.806Z,60.74
2018-09-23T09:46:09.966Z,61.65
2018-09-23T09:48:39.145Z,61.81
2018-09-23T09:51:08.255Z,62.36
2018-09-23T09:53:37.248Z,63.05
2018-09-23T09:56:06.097Z,63.18
2018-09-23T09:58:35.947Z,63.10
2018-09-23T10:01:05.307Z,61.74
2018-09-23T10:03:34.161Z,61.03
2018-09-23T10:06:02.842Z,58.26
2018-09-23T10:08:32.070Z,56.86
2018-09-23T10:11:01.104Z,54.51
2018-09-23T10:13:30.361Z,53.62
2018-09-23T10:15:59.640Z,54.33
2018-09-23T10:18:28.781Z,53.76
2018-09-23T10:20:58.915Z,50.69
2018-09-23T10:23:29.425Z,47.67
2018-09-23T10:25:58.012Z,49.46
2018-09-23T10:28:27.708Z,49.08
2018-09-23T10:30:56.863Z,47.92
2018-09-23T10:33:27.052Z,48.94
2018-09-23T10:35:57.250Z,49.02
2018-09-23T10:38:26.311Z,51.34
2018-09-23T10:40:56.090Z,53.19
2018-09-23T10:43:24.930Z,53.13
2018-09-23T10:45:54.056Z,52.75
2018-09-23T10:48:23.476Z,52.56
2018-09-23T10:50:52.523Z,49.98
2018-09-23T10:53:21.698Z,46.05
2018-09-23T10:55:51.040Z,42.24
2018-09-23T10:58:20.183Z,39.24
2018-09-23T11:00:49.484Z,40.01
2018-09-23T11:03:18.729Z,41.20
2018-09-23T11:05:47.924Z,39.87
2018-09-23T11:08:16.756Z,41.00
2018-09-23T11:10:46.365Z,40.03
2018-09-23T11:13:15.579Z,39.49
2018-09-23T11:15:44.736Z,39.24
2018-09-23T11:18:13.646Z,38.35
2018-09-23T11:20:42.467Z,40.81
2018-09-23T11:23:12.181Z,43.94
2018-09-23T11:25:41.031Z,47.11
2018-09-23T11:28:09.982Z,47.77
2018-09-23T11:30:39.263Z,48.45
2018-09-23T11:33:07.996Z,49.02
2018-09-23T11:35:38.684Z,49.95
2018-09-23T11:38:07.816Z,45.93
2018-09-23T11:40:37.115Z,44.42
2018-09-23T11:43:06.335Z,43.44
2018-09-23T11:45:35.339Z,40.19
2018-09-23T11:48:04.855Z,37.68
2018-09-23T11:50:34.226Z,37.42
2018-09-23T11:53:03.225Z,36.19
2018-09-23T11:55:33.643Z,37.43
2018-09-23T11:58:03.428Z,37.24
2018-09-23T12:00:32.862Z,38.35
2018-09-23T12:03:03.871Z,39.00
2018-09-23T12:05:33.211Z,40.57
2018-09-23T12:08:02.372Z,39.76
2018-09-23T12:10:31.817Z,38.50
2018-09-23T12:13:00.652Z,39.23
2018-09-23T12:15:30.073Z,39.52
2018-09-23T12:17:59.199Z,42.59
2018-09-23T12:20:28.536Z,43.90
2018-09-23T12:22:57.932Z,45.21
2018-09-23T12:25:27.026Z,46.17
2018-09-23T12:27:56.106Z,46.75
2018-09-23T12:30:25.419Z,49.09
2018-09-23T12:32:54.286Z,48.79
2018-09-23T12:35:23.165Z,48.32
2018-09-23T12:37:52.114Z,48.59
2018-09-23T12:40:20.821Z,49.19
2018-09-23T12:42:49.563Z,48.40
2018-09-23T12:45:18.651Z,48.01
2018-09-23T12:47:48.925Z,48.42
2018-09-23T12:50:18.215Z,48.55
2018-09-23T12:52:47.532Z,45.89
2018-09-23T12:55:16.521Z,42.52
2018-09-23T12:57:45.855Z,42.94
2018-09-23T13:00:14.825Z,42.83
2018-09-23T13:02:44.289Z,39.82
2018-09-23T13:05:13.198Z,37.61
2018-09-23T13:07:41.891Z,40.77
2018-09-23T13:10:10.984Z,39.08
2018-09-23T13:12:39.843Z,37.92
2018-09-23T13:15:08.695Z,35.86
2018-09-23T13:17:37.826Z,34.74
2018-09-23T13:20:06.920Z,33.99
2018-09-23T13:22:36.611Z,34.64
2018-09-23T13:25:07.652Z,34.55
2018-09-23T13:27:36.640Z,34.73
2018-09-23T13:30:05.796Z,36.40
2018-09-23T13:32:35.029Z,39.71
2018-09-23T13:35:04.842Z,42.92
2018-09-23T13:37:34.246Z,44.23
2018-09-23T13:40:03.580Z,45.39
2018-09-23T13:42:33.014Z,45.44
2018-09-23T13:45:01.984Z,46.31
2018-09-23T13:47:32.373Z,48.38
2018-09-23T13:50:01.408Z,50.04
2018-09-23T13:52:30.311Z,50.16
2018-09-23T13:55:00.893Z,49.28
2018-09-23T13:57:30.143Z,47.07
2018-09-23T13:59:59.641Z,45.73
2018-09-23T14:02:28.881Z,44.26
2018-09-23T14:04:58.003Z,43.90
2018-09-23T14:07:28.532Z,42.83
2018-09-23T14:09:58.485Z,41.87
2018-09-23T14:12:28.695Z,40.50
2018-09-23T14:14:58.017Z,40.11
2018-09-23T14:17:27.732Z,41.59
2018-09-23T14:19:57.383Z,43.45
2018-09-23T14:22:26.536Z,45.43
2018-09-23T14:24:55.790Z,45.60
2018-09-23T14:27:26.234Z,47.37
2018-09-23T14:29:55.936Z,48.39
2018-09-23T14:32:25.914Z,48.52
2018-09-23T14:34:55.334Z,49.88
2018-09-23T14:37:25.374Z,50.85
2018-09-23T14:39:54.983Z,51.83
2018-09-23T14:42:24.193Z,51.54
2018-09-23T14:44:53.377Z,50.76
2018-09-23T14:47:22.704Z,51.60
2018-09-23T14:49:54.164Z,52.14
2018-09-23T14:52:23.579Z,53.20
2018-09-23T14:54:53.917Z,52.64
2018-09-23T14:57:24.268Z,52.85
2018-09-23T14:59:54.367Z,53.11
2018-09-23T15:02:22.708Z,52.91
2018-09-23T15:04:52.014Z,52.70
2018-09-23T15:07:21.326Z,53.08
2018-09-23T15:09:51.371Z,53.24
2018-09-23T15:12:21.026Z,52.82
2018-09-23T15:14:51.220Z,52.75
2018-09-23T15:17:21.001Z,53.53
2018-09-23T15:19:51.126Z,53.02
2018-09-23T15:22:21.531Z,52.95
2018-09-23T15:24:50.727Z,53.04
2018-09-23T15:27:20.488Z,52.71
2018-09-23T15:29:49.845Z,53.30
2018-09-23T15:32:20.102Z,53.42
2018-09-23T15:34:49.473Z,54.16
2018-09-23T15:37:18.638Z,53.74
2018-09-23T15:39:47.800Z,53.72
2018-09-23T15:42:17.260Z,53.79
2018-09-23T15:44:46.490Z,53.66
2018-09-23T15:47:15.621Z,53.72
2018-09-23T15:49:44.896Z,53.92
2018-09-23T15:52:14.507Z,54.14
2018-09-23T15:54:45.421Z,53.59
2018-09-23T15:57:14.586Z,54.04
2018-09-23T15:59:44.467Z,54.41
2018-09-23T16:02:14.671Z,54.84
2018-09-23T16:04:43.787Z,54.46
2018-09-23T16:07:14.408Z,54.55
2018-09-23T16:09:43.589Z,54.88
2018-09-23T16:12:13.687Z,55.72
2018-09-23T16:14:43.202Z,56.34
2018-09-23T16:17:12.897Z,56.33
2018-09-23T16:19:42.373Z,56.79
2018-09-23T16:22:11.522Z,56.44
2018-09-23T16:24:40.676Z,56.39
2018-09-23T16:27:09.848Z,56.67
2018-09-23T16:29:39.032Z,56.85
2018-09-23T16:32:08.397Z,57.29
2018-09-23T16:34:38.498Z,57.69
2018-09-23T16:37:07.719Z,57.89
2018-09-23T16:39:37.924Z,58.01
2018-09-23T16:42:07.751Z,58.48
2018-09-23T16:44:37.324Z,57.58
2018-09-23T16:47:06.387Z,58.02
2018-09-23T16:49:35.728Z,58.29
2018-09-23T16:52:05.058Z,57.65
2018-09-23T16:54:34.389Z,58.13
2018-09-23T16:57:04.597Z,57.87
2018-09-23T16:59:33.577Z,58.00
2018-09-23T17:02:02.694Z,58.63
2018-09-23T17:04:32.018Z,58.33
2018-09-23T17:07:01.220Z,59.17
2018-09-23T17:09:30.516Z,61.78
2018-09-23T17:12:00.416Z,67.00
2018-09-23T17:14:29.949Z,83.44
2018-09-23T17:16:59.458Z,89.09
2018-09-23T17:19:28.559Z,92.54
2018-09-23T17:21:57.512Z,96.33
2018-09-23T17:24:26.826Z,98.35
2018-09-23T17:26:56.919Z,97.73
2018-09-23T17:29:26.288Z,99.23
2018-09-23T17:31:55.432Z,100.00
2018-09-23T17:34:25.683Z,100.00
2018-09-23T17:36:54.739Z,100.00
2018-09-23T17:39:24.037Z,100.00
2018-09-23T17:41:53.243Z,100.00
2018-09-23T17:44:22.333Z,100.00
2018-09-23T17:46:51.644Z,100.00
2018-09-23T17:49:20.954Z,100.00
2018-09-23T17:51:50.175Z,100.00
2018-09-23T17:54:19.414Z,100.00
2018-09-23T17:56:49.179Z,100.00
2018-09-23T17:59:18.130Z,98.79
2018-09-23T18:01:47.083Z,98.13
2018-09-23T18:04:16.167Z,97.84
2018-09-23T18:06:45.442Z,97.85
2018-09-23T18:09:14.554Z,98.28
2018-09-23T18:11:44.096Z,99.01
2018-09-23T18:14:13.259Z,98.78
2018-09-23T18:16:42.306Z,98.17
2018-09-23T18:19:11.696Z,98.23
2018-09-23T18:21:40.754Z,97.65
2018-09-23T18:24:09.895Z,98.21
2018-09-23T18:26:39.291Z,98.73
2018-09-23T18:29:08.470Z,97.37
2018-09-23T18:31:38.566Z,98.29
2018-09-23T18:34:07.852Z,97.86
2018-09-23T18:36:37.064Z,97.43
2018-09-23T18:39:08.264Z,97.81
2018-09-23T18:41:37.337Z,97.41
2018-09-23T18:44:06.723Z,96.91
2018-09-23T18:46:35.924Z,96.56
2018-09-23T18:49:05.458Z,97.05
2018-09-23T18:51:34.424Z,96.85
2018-09-23T18:54:08.639Z,98.29
2018-09-23T18:56:37.681Z,97.55
2018-09-23T18:59:06.819Z,97.35
2018-09-23T19:01:37.093Z,94.39
2018-09-23T19:04:06.416Z,92.50
2018-09-23T19:06:35.587Z,92.02
2018-09-23T19:09:07.695Z,92.87
2018-09-23T19:11:37.093Z,93.20
2018-09-23T19:14:06.657Z,94.17
2018-09-23T19:16:36.459Z,93.65
2018-09-23T19:19:06.647Z,93.55
2018-09-23T19:21:36.688Z,92.91
2018-09-23T19:24:05.956Z,93.55
2018-09-23T19:26:35.808Z,93.53
2018-09-23T19:29:04.649Z,93.33
2018-09-23T19:31:34.645Z,93.40
2018-09-23T19:34:04.013Z,93.69
2018-09-23T19:36:33.119Z,93.90
2018-09-23T19:39:03.265Z,93.57
2018-09-23T19:41:32.298Z,93.10
2018-09-23T19:44:01.795Z,91.57
2018-09-23T19:46:30.953Z,91.28
2018-09-23T19:49:00.564Z,90.52
2018-09-23T19:51:29.444Z,91.07
2018-09-23T19:53:58.529Z,91.20
2018-09-23T19:56:27.810Z,91.97
2018-09-23T19:58:57.139Z,91.71
2018-09-23T20:01:26.249Z,91.94
2018-09-23T20:03:55.594Z,91.30
2018-09-23T20:06:24.786Z,91.99
2018-09-23T20:08:54.570Z,90.57
2018-09-23T20:11:23.393Z,90.51
2018-09-23T20:13:52.507Z,90.36
2018-09-23T20:16:22.849Z,89.33
2018-09-23T20:18:51.818Z,90.51
2018-09-23T20:21:20.778Z,89.82
2018-09-23T20:23:50.909Z,88.48
2018-09-23T20:26:19.991Z,89.54
2018-09-23T20:28:49.759Z,89.83
2018-09-23T20:31:18.833Z,90.22
2018-09-23T20:33:47.898Z,90.44
2018-09-23T20:36:17.331Z,89.67
2018-09-23T20:38:46.447Z,87.91
2018-09-23T20:41:15.664Z,86.42
2018-09-23T20:43:45.002Z,85.86
2018-09-23T20:46:14.095Z,87.49
2018-09-23T20:48:43.870Z,86.16
2018-09-23T20:51:12.828Z,85.62
2018-09-23T20:53:41.888Z,86.18
2018-09-23T20:56:10.724Z,86.69
2018-09-23T20:58:41.247Z,87.26
2018-09-23T21:01:10.213Z,87.33
2018-09-23T21:03:39.661Z,86.04
2018-09-23T21:06:08.851Z,86.02
2018-09-23T21:08:38.127Z,86.09
2018-09-23T21:11:07.412Z,86.37
2018-09-23T21:13:36.555Z,85.90
2018-09-23T21:16:05.772Z,86.58
2018-09-23T21:18:35.105Z,86.16
2018-09-23T21:21:04.240Z,85.67
2018-09-23T21:23:33.548Z,86.28
2018-09-23T21:26:02.650Z,85.38
2018-09-23T21:28:31.530Z,85.44
2018-09-23T21:31:01.164Z,84.71
2018-09-23T21:33:30.365Z,83.63
2018-09-23T21:35:59.539Z,84.02
2018-09-23T21:38:28.393Z,83.43
2018-09-23T21:40:58.092Z,83.51
2018-09-23T21:43:27.008Z,83.72
2018-09-23T21:45:55.589Z,84.54
2018-09-23T21:48:24.499Z,84.32
2018-09-23T21:50:53.919Z,85.26
2018-09-23T21:53:22.770Z,85.25
2018-09-23T21:55:51.410Z,86.01
2018-09-23T21:58:20.299Z,85.18
2018-09-23T22:00:50.253Z,85.13
2018-09-23T22:03:19.105Z,84.87
2018-09-23T22:05:48.370Z,84.82
2018-09-23T22:08:17.531Z,85.02
2018-09-23T22:10:46.839Z,85.68
2018-09-23T22:13:16.946Z,85.85
2018-09-23T22:15:46.154Z,85.95
2018-09-23T22:18:15.359Z,86.12
2018-09-23T22:20:44.813Z,86.12
2018-09-23T22:23:13.703Z,86.51
2018-09-23T22:25:43.029Z,86.39
2018-09-23T22:28:12.154Z,86.75
2018-09-23T22:30:41.703Z,85.92
2018-09-23T22:33:10.859Z,85.75
2018-09-23T22:35:39.579Z,85.40
2018-09-23T22:38:08.294Z,84.71
2018-09-23T22:40:37.368Z,84.79
2018-09-23T22:43:06.973Z,84.79
2018-09-23T22:45:36.176Z,85.71
2018-09-23T22:48:04.999Z,87.37
2018-09-23T22:50:33.883Z,87.16
2018-09-23T22:53:03.445Z,88.05
2018-09-23T22:55:33.684Z,87.24
2018-09-23T22:58:02.568Z,84.68
2018-09-23T23:00:32.310Z,83.44
2018-09-23T23:03:01.107Z,83.03
2018-09-23T23:05:29.779Z,82.22
2018-09-23T23:07:58.510Z,82.95
2018-09-23T23:10:27.853Z,83.39
2018-09-23T23:12:56.602Z,84.08
2018-09-23T23:15:25.544Z,83.75
2018-09-23T23:17:55.375Z,82.94
2018-09-23T23:20:25.005Z,83.35
2018-09-23T23:22:53.870Z,84.14
2018-09-23T23:25:22.793Z,83.69
2018-09-23T23:27:51.666Z,82.99
2018-09-23T23:30:20.627Z,83.54
2018-09-23T23:32:50.003Z,83.28
2018-09-23T23:35:19.379Z,82.52
2018-09-23T23:37:48.540Z,81.13
2018-09-23T23:40:17.695Z,79.80
2018-09-23T23:42:46.629Z,79.57
2018-09-23T23:45:17.195Z,79.81
2018-09-23T23:47:46.336Z,79.12
2018-09-23T23:50:15.736Z,79.94
2018-09-23T23:52:45.663Z,80.74
2018-09-23T23:55:14.401Z,80.72
2018-09-23T23:57:43.154Z,80.27
